createdAt,value
2022-11-25T00:01:13.067Z,5.18
2022-11-25T00:03:40.452Z,5.25
2022-11-25T00:06:16.484Z,5.35
2022-11-25T00:08:44.330Z,5.20
2022-11-25T00:11:12.169Z,5.15
2022-11-25T00:13:39.867Z,4.70
2022-11-25T00:16:08.706Z,5.03
2022-11-25T00:18:36.193Z,5.35
2022-11-25T00:21:11.128Z,5.20
2022-11-25T00:23:38.756Z,5.35
2022-11-25T00:26:06.842Z,5.10
2022-11-25T00:31:14.459Z,5.53
2022-11-25T00:33:42.002Z,5.38
2022-11-25T00:36:15.401Z,5.18
2022-11-25T00:38:42.524Z,5.40
2022-11-25T00:41:28.526Z,4.78
2022-11-25T00:44:14.556Z,5.25
2022-11-25T00:46:41.906Z,5.15
2022-11-25T00:49:09.166Z,5.10
2022-11-25T00:51:41.050Z,5.00
2022-11-25T00:54:08.183Z,4.85
2022-11-25T00:56:35.300Z,4.95
2022-11-25T00:59:02.423Z,5.20
2022-11-25T01:01:29.625Z,4.78
2022-11-25T01:03:56.805Z,5.18
2022-11-25T01:06:24.016Z,5.47
2022-11-25T01:08:51.166Z,4.80
2022-11-25T01:11:20.028Z,4.57
2022-11-25T01:13:47.229Z,4.97
2022-11-25T01:16:15.823Z,4.38
2022-11-25T01:18:43.351Z,4.53
2022-11-25T01:21:10.485Z,4.95
2022-11-25T01:23:37.707Z,4.63
2022-11-25T01:26:05.565Z,4.60
2022-11-25T01:28:33.266Z,4.80
2022-11-25T01:31:08.027Z,4.10
2022-11-25T01:33:35.474Z,4.50
2022-11-25T01:36:07.099Z,4.25
2022-11-25T01:38:34.296Z,4.63
2022-11-25T01:41:01.716Z,4.63
2022-11-25T01:43:29.778Z,4.60
2022-11-25T01:48:29.170Z,4.00
2022-11-25T01:50:56.509Z,4.20
2022-11-25T01:53:23.893Z,4.03
2022-11-25T01:55:56.568Z,4.28
2022-11-25T01:58:27.496Z,3.80
2022-11-25T02:00:54.838Z,3.80
2022-11-25T02:03:35.436Z,3.75
2022-11-25T02:06:08.806Z,4.40
2022-11-25T02:08:35.967Z,4.18
2022-11-25T02:11:05.910Z,4.03
2022-11-25T02:13:33.411Z,3.67
2022-11-25T02:16:00.767Z,4.25
2022-11-25T02:18:28.236Z,3.78
2022-11-25T02:20:55.556Z,3.83
2022-11-25T02:23:39.906Z,3.57
2022-11-25T02:26:07.085Z,3.92
2022-11-25T02:28:34.757Z,3.47
2022-11-25T02:31:01.925Z,3.67
2022-11-25T02:33:29.262Z,3.90
2022-11-25T02:36:16.578Z,3.80
2022-11-25T02:38:51.765Z,4.03
2022-11-25T02:41:20.495Z,3.50
2022-11-25T02:43:47.927Z,3.85
2022-11-25T02:46:21.892Z,3.75
2022-11-25T02:51:37.594Z,3.97
2022-11-25T02:54:05.299Z,3.60
2022-11-25T02:56:33.540Z,3.58
2022-11-25T02:59:00.807Z,3.67
2022-11-25T03:01:28.567Z,3.50
2022-11-25T03:03:55.708Z,3.65
2022-11-25T03:06:22.831Z,3.22
2022-11-25T03:08:49.966Z,3.67
2022-11-25T03:11:17.059Z,3.55
2022-11-25T03:13:44.681Z,3.30
2022-11-25T03:16:11.894Z,3.38
2022-11-25T03:18:39.091Z,3.20
2022-11-25T03:21:07.416Z,3.03
2022-11-25T03:23:34.546Z,3.35
2022-11-25T03:26:05.299Z,3.45
2022-11-25T03:28:32.419Z,3.03
2022-11-25T03:30:59.567Z,3.17
2022-11-25T03:33:26.694Z,3.10
2022-11-25T03:35:53.786Z,3.35
2022-11-25T03:38:20.928Z,3.38
2022-11-25T03:40:48.119Z,3.20
2022-11-25T03:43:15.269Z,3.10
2022-11-25T03:45:42.478Z,2.90
2022-11-25T03:48:09.723Z,3.13
2022-11-25T03:50:36.848Z,3.20
2022-11-25T03:53:03.974Z,3.00
2022-11-25T03:55:31.210Z,3.10
2022-11-25T03:58:00.881Z,2.83
2022-11-25T04:00:28.010Z,3.08
2022-11-25T04:02:55.225Z,3.08
2022-11-25T04:05:22.373Z,3.20
2022-11-25T04:07:52.326Z,2.67
2022-11-25T04:10:23.497Z,2.90
2022-11-25T04:12:52.451Z,2.88
2022-11-25T04:15:19.585Z,2.95
2022-11-25T04:17:46.799Z,2.60
2022-11-25T04:20:14.309Z,3.10
2022-11-25T04:22:41.651Z,3.42
2022-11-25T04:25:09.338Z,2.40
2022-11-25T04:27:36.471Z,2.70
2022-11-25T04:30:03.609Z,2.50
2022-11-25T04:32:30.804Z,2.85
2022-11-25T04:34:57.957Z,2.70
2022-11-25T04:37:25.207Z,2.60
2022-11-25T04:39:52.334Z,2.53
2022-11-25T04:42:31.734Z,2.95
2022-11-25T04:45:21.384Z,2.72
2022-11-25T04:47:46.646Z,2.65
2022-11-25T04:50:15.669Z,2.55
2022-11-25T04:52:42.792Z,2.60
2022-11-25T04:55:10.199Z,2.40
2022-11-25T04:57:37.909Z,2.92
2022-11-25T05:00:06.838Z,2.17
2022-11-25T05:02:34.016Z,2.88
2022-11-25T05:05:01.219Z,2.53
2022-11-25T05:07:28.907Z,2.70
2022-11-25T05:09:56.600Z,2.85
2022-11-25T05:12:25.343Z,2.67
2022-11-25T05:14:52.486Z,2.47
2022-11-25T05:17:21.110Z,2.50
2022-11-25T05:19:48.280Z,2.38
2022-11-25T05:22:16.462Z,2.50
2022-11-25T05:27:10.859Z,2.33
2022-11-25T05:29:38.184Z,2.45
2022-11-25T05:32:05.961Z,2.25
2022-11-25T05:34:33.113Z,2.63
2022-11-25T05:37:00.806Z,2.40
2022-11-25T05:39:27.909Z,2.58
2022-11-25T05:41:55.039Z,2.60
2022-11-25T05:44:23.251Z,2.50
2022-11-25T05:46:50.831Z,2.22
2022-11-25T05:49:18.553Z,2.50
2022-11-25T05:51:45.874Z,2.25
2022-11-25T05:54:13.004Z,2.13
2022-11-25T05:56:40.235Z,2.30
2022-11-25T05:59:07.757Z,2.40
2022-11-25T06:01:34.992Z,2.58
2022-11-25T06:04:02.853Z,2.30
2022-11-25T06:06:30.751Z,2.17
2022-11-25T06:08:58.002Z,2.33
2022-11-25T06:11:28.273Z,2.10
2022-11-25T06:13:57.801Z,2.20
2022-11-25T06:16:25.522Z,2.10
2022-11-25T06:18:53.042Z,2.13
2022-11-25T06:21:23.315Z,2.60
2022-11-25T06:23:53.129Z,2.35
2022-11-25T06:26:21.629Z,2.17
2022-11-25T06:28:50.438Z,2.10
2022-11-25T06:31:19.528Z,2.22
2022-11-25T06:33:50.789Z,2.08
2022-11-25T06:36:18.554Z,2.20
2022-11-25T06:38:51.136Z,2.30
2022-11-25T06:41:18.915Z,1.92
2022-11-25T06:43:46.042Z,2.00
2022-11-25T06:46:15.657Z,2.00
2022-11-25T06:48:47.458Z,2.30
2022-11-25T06:51:15.421Z,1.90
2022-11-25T06:53:42.670Z,2.05
2022-11-25T06:56:12.447Z,1.90
2022-11-25T06:58:40.609Z,1.88
2022-11-25T07:03:37.224Z,2.00
2022-11-25T07:06:04.671Z,2.13
2022-11-25T07:08:34.187Z,2.20
2022-11-25T07:11:08.737Z,1.83
2022-11-25T07:13:35.869Z,2.35
2022-11-25T07:16:09.454Z,1.92
2022-11-25T07:18:37.372Z,2.10
2022-11-25T07:21:12.163Z,2.10
2022-11-25T07:23:39.650Z,1.90
2022-11-25T07:26:08.254Z,2.15
2022-11-25T07:28:35.932Z,1.95
2022-11-25T07:31:28.677Z,1.80
2022-11-25T07:34:20.191Z,1.80
2022-11-25T07:36:48.223Z,1.92
2022-11-25T07:39:17.256Z,1.75
2022-11-25T07:41:44.492Z,2.15
2022-11-25T07:44:12.867Z,1.80
2022-11-25T07:46:47.639Z,2.05
2022-11-25T07:49:16.575Z,2.28
2022-11-25T07:51:45.727Z,2.30
2022-11-25T07:54:13.758Z,2.08
2022-11-25T07:56:41.702Z,2.10
2022-11-25T07:59:12.016Z,1.80
2022-11-25T08:01:39.364Z,2.00
2022-11-25T08:04:08.262Z,2.22
2022-11-25T08:06:38.302Z,2.30
2022-11-25T08:09:05.570Z,2.20
2022-11-25T08:11:33.593Z,2.00
2022-11-25T08:14:01.227Z,2.30
2022-11-25T08:16:31.112Z,2.17
2022-11-25T08:18:59.981Z,1.92
2022-11-25T08:21:27.464Z,2.10
2022-11-25T08:23:55.345Z,2.08
2022-11-25T08:26:25.685Z,1.88
2022-11-25T08:28:53.819Z,2.20
2022-11-25T08:33:49.135Z,1.80
2022-11-25T08:36:16.748Z,2.17
2022-11-25T08:38:45.632Z,2.10
2022-11-25T08:41:13.834Z,2.10
2022-11-25T08:46:08.952Z,1.80
2022-11-25T08:51:08.187Z,2.13
2022-11-25T08:53:35.351Z,2.80
2022-11-25T08:56:02.520Z,3.13
2022-11-25T08:58:29.632Z,2.70
2022-11-25T09:00:56.819Z,3.05
2022-11-25T09:03:24.046Z,2.50
2022-11-25T09:05:51.615Z,2.30
2022-11-25T09:08:18.893Z,2.13
2022-11-25T09:10:46.108Z,2.67
2022-11-25T09:13:13.706Z,2.20
2022-11-25T09:15:41.335Z,2.33
2022-11-25T09:18:09.748Z,2.40
2022-11-25T09:20:38.452Z,2.22
2022-11-25T09:23:06.380Z,2.40
2022-11-25T09:25:33.566Z,2.60
2022-11-25T09:28:00.715Z,2.43
2022-11-25T09:30:28.485Z,2.38
2022-11-25T09:32:56.380Z,2.20
2022-11-25T09:35:24.676Z,2.53
2022-11-25T09:37:52.345Z,2.33
2022-11-25T09:40:21.833Z,2.75
2022-11-25T09:43:07.433Z,3.00
2022-11-25T09:46:38.552Z,2.38
2022-11-25T09:49:26.749Z,2.33
2022-11-25T09:51:56.876Z,2.38
2022-11-25T09:54:37.551Z,2.33
2022-11-25T09:57:24.251Z,2.40
2022-11-25T10:00:12.578Z,2.80
2022-11-25T10:02:42.085Z,2.42
2022-11-25T10:05:12.260Z,2.30
2022-11-25T10:07:43.395Z,2.08
2022-11-25T10:10:16.239Z,2.40
2022-11-25T10:12:45.994Z,2.33
2022-11-25T10:15:22.013Z,2.03
2022-11-25T10:17:50.797Z,2.25
2022-11-25T10:20:20.979Z,2.50
2022-11-25T10:22:52.887Z,2.40
2022-11-25T10:25:23.242Z,2.35
2022-11-25T10:28:02.672Z,2.42
2022-11-25T10:30:42.685Z,2.20
2022-11-25T10:33:20.957Z,1.98
2022-11-25T10:35:52.436Z,2.20
2022-11-25T10:38:23.252Z,1.98
2022-11-25T10:40:52.229Z,2.08
2022-11-25T10:43:19.462Z,2.13
2022-11-25T10:45:55.570Z,2.42
2022-11-25T10:48:44.671Z,1.98
2022-11-25T10:51:17.670Z,1.88
2022-11-25T10:54:04.728Z,2.03
2022-11-25T10:56:31.872Z,2.00
2022-11-25T10:58:58.980Z,1.92
2022-11-25T11:01:26.284Z,2.13
2022-11-25T11:04:04.406Z,2.00
2022-11-25T11:08:59.379Z,2.25
2022-11-25T11:11:27.142Z,1.90
2022-11-25T11:14:21.986Z,2.10
2022-11-25T11:16:58.733Z,2.20
2022-11-25T11:19:28.086Z,2.20
2022-11-25T11:21:56.410Z,1.95
2022-11-25T11:24:32.227Z,2.08
2022-11-25T11:27:05.253Z,2.28
2022-11-25T11:29:32.394Z,2.00
2022-11-25T11:32:00.680Z,2.10
2022-11-25T11:34:48.353Z,2.00
2022-11-25T11:37:18.966Z,1.80
2022-11-25T11:39:52.068Z,2.00
2022-11-25T11:42:29.247Z,2.30
2022-11-25T11:45:31.486Z,1.97
2022-11-25T11:48:17.094Z,2.10
2022-11-25T11:50:50.038Z,1.90
2022-11-25T11:53:31.085Z,2.25
2022-11-25T11:56:33.680Z,2.20
2022-11-25T11:58:50.373Z,2.30
2022-11-25T12:01:22.246Z,2.00
2022-11-25T12:03:58.297Z,2.28
2022-11-25T12:06:27.709Z,2.20
2022-11-25T12:09:16.686Z,2.20
2022-11-25T12:11:46.196Z,2.00
2022-11-25T12:14:44.844Z,1.85
2022-11-25T12:17:18.195Z,1.90
2022-11-25T12:19:53.511Z,1.85
2022-11-25T12:22:24.288Z,2.08
2022-11-25T12:25:14.315Z,1.85
2022-11-25T12:27:54.226Z,2.05
2022-11-25T12:30:22.700Z,1.88
2022-11-25T12:33:08.500Z,2.05
2022-11-25T12:35:35.602Z,2.00
2022-11-25T12:38:03.354Z,1.85
2022-11-25T12:40:42.142Z,1.73
2022-11-25T12:43:28.549Z,2.03
2022-11-25T12:46:01.530Z,1.88
2022-11-25T12:48:29.176Z,2.03
2022-11-25T12:51:07.616Z,2.10
2022-11-25T12:53:43.751Z,2.25
2022-11-25T12:56:16.812Z,2.30
2022-11-25T12:59:16.389Z,1.80
2022-11-25T13:01:52.565Z,2.00
2022-11-25T13:04:38.723Z,2.08
2022-11-25T13:07:25.712Z,1.95
2022-11-25T13:10:22.804Z,2.13
2022-11-25T13:13:04.731Z,1.83
2022-11-25T13:15:33.873Z,2.30
2022-11-25T13:18:04.056Z,1.98
2022-11-25T13:20:31.245Z,1.90
2022-11-25T13:23:22.618Z,1.70
2022-11-25T13:25:50.887Z,2.30
2022-11-25T13:30:46.815Z,2.30
2022-11-25T13:33:13.962Z,2.22
2022-11-25T13:35:44.577Z,2.20
2022-11-25T13:38:30.202Z,1.90
2022-11-25T13:40:58.694Z,2.00
2022-11-25T13:43:25.909Z,2.00
2022-11-25T13:45:53.126Z,1.85
2022-11-25T13:48:31.134Z,2.10
2022-11-25T13:53:39.351Z,2.00
2022-11-25T13:56:32.509Z,1.75
2022-11-25T13:59:11.692Z,1.67
2022-11-25T14:01:40.518Z,1.90
2022-11-25T14:04:13.414Z,2.22
2022-11-25T14:06:51.145Z,2.40
2022-11-25T14:09:29.349Z,2.00
2022-11-25T14:12:05.286Z,2.05
2022-11-25T14:14:49.957Z,2.35
2022-11-25T14:17:29.521Z,2.10
2022-11-25T14:20:15.179Z,2.47
2022-11-25T14:22:51.283Z,1.90
2022-11-25T14:25:26.785Z,2.10
2022-11-25T14:28:03.932Z,1.75
2022-11-25T14:30:32.380Z,1.98
2022-11-25T14:35:33.282Z,1.90
2022-11-25T14:38:09.557Z,1.73
2022-11-25T14:40:42.447Z,1.80
2022-11-25T14:43:13.637Z,1.80
2022-11-25T14:45:40.855Z,2.15
2022-11-25T14:48:15.389Z,2.00
2022-11-25T14:50:54.471Z,1.90
2022-11-25T14:53:21.794Z,2.10
2022-11-25T14:55:49.410Z,1.63
2022-11-25T14:58:17.017Z,2.03
2022-11-25T15:00:59.900Z,1.88
2022-11-25T15:03:27.485Z,1.90
2022-11-25T15:06:01.626Z,1.77
2022-11-25T15:08:30.444Z,1.95
2022-11-25T15:10:59.897Z,1.98
2022-11-25T15:13:32.995Z,2.10
2022-11-25T15:16:05.402Z,2.10
2022-11-25T15:18:34.961Z,1.63
2022-11-25T15:21:02.655Z,2.20
2022-11-25T15:23:36.203Z,2.20
2022-11-25T15:26:04.583Z,2.15
2022-11-25T15:28:35.743Z,1.85
2022-11-25T15:31:03.865Z,2.08
2022-11-25T15:33:31.654Z,1.85
2022-11-25T15:35:58.840Z,1.85
2022-11-25T15:38:45.065Z,2.20
2022-11-25T15:41:25.400Z,2.05
2022-11-25T15:43:55.043Z,2.13
2022-11-25T15:46:22.809Z,2.00
2022-11-25T15:48:51.963Z,2.10
2022-11-25T15:51:25.952Z,1.92
2022-11-25T15:53:55.668Z,1.83
2022-11-25T15:56:25.479Z,1.80
2022-11-25T15:58:56.126Z,2.00
2022-11-25T16:01:28.669Z,1.73
2022-11-25T16:04:09.531Z,3.10
2022-11-25T16:06:36.648Z,2.90
2022-11-25T16:09:04.539Z,2.47
2022-11-25T16:11:33.991Z,2.28
2022-11-25T16:14:31.715Z,2.33
2022-11-25T16:19:35.143Z,2.30
2022-11-25T16:22:05.567Z,2.22
2022-11-25T16:24:32.881Z,2.17
2022-11-25T16:27:15.782Z,2.00
2022-11-25T16:29:52.518Z,2.38
2022-11-25T16:32:21.453Z,2.10
2022-11-25T16:34:49.250Z,2.20
2022-11-25T16:37:16.788Z,2.10
2022-11-25T16:39:43.933Z,2.05
2022-11-25T16:42:17.348Z,2.25
2022-11-25T16:44:47.990Z,2.08
2022-11-25T16:47:15.241Z,2.22
2022-11-25T16:49:42.537Z,1.83
2022-11-25T16:52:10.372Z,2.10
2022-11-25T16:54:39.283Z,2.20
2022-11-25T16:57:07.647Z,2.10
2022-11-25T16:59:40.262Z,2.15
2022-11-25T17:02:17.045Z,2.03
2022-11-25T17:04:44.363Z,1.90
2022-11-25T17:07:31.641Z,2.05
2022-11-25T17:09:59.798Z,2.03
2022-11-25T17:12:30.145Z,1.77
2022-11-25T17:14:59.809Z,1.95
2022-11-25T17:17:27.557Z,2.03
2022-11-25T17:19:54.799Z,2.13
2022-11-25T17:22:23.676Z,1.80
2022-11-25T17:24:50.956Z,2.17
2022-11-25T17:27:21.087Z,2.20
2022-11-25T17:29:48.425Z,1.77
2022-11-25T17:32:16.405Z,1.80
2022-11-25T17:34:43.671Z,1.90
2022-11-25T17:37:17.953Z,1.92
2022-11-25T17:39:45.676Z,2.20
2022-11-25T17:42:16.407Z,2.03
2022-11-25T17:44:47.535Z,2.08
2022-11-25T17:47:19.693Z,1.80
2022-11-25T17:49:46.872Z,1.92
2022-11-25T17:52:13.969Z,2.22
2022-11-25T17:54:41.182Z,1.88
2022-11-25T17:57:12.271Z,1.42
2022-11-25T17:59:39.492Z,2.13
2022-11-25T18:02:27.508Z,1.97
2022-11-25T18:04:55.270Z,2.03
2022-11-25T18:07:22.482Z,1.90
2022-11-25T18:09:49.672Z,2.03
2022-11-25T18:12:19.919Z,2.00
2022-11-25T18:14:47.100Z,1.80
2022-11-25T18:17:16.634Z,2.00
2022-11-25T18:19:43.911Z,1.85
2022-11-25T18:22:18.274Z,1.92
2022-11-25T18:24:46.195Z,2.00
2022-11-25T18:27:39.355Z,2.25
2022-11-25T18:30:08.175Z,1.90
2022-11-25T18:32:35.879Z,2.03
2022-11-25T18:35:03.561Z,2.00
2022-11-25T18:37:31.097Z,1.80
2022-11-25T18:39:58.233Z,2.00
2022-11-25T18:42:27.092Z,2.20
2022-11-25T18:44:55.378Z,2.38
2022-11-25T18:47:22.647Z,2.13
2022-11-25T18:49:55.372Z,1.80
2022-11-25T18:52:24.080Z,2.00
2022-11-25T18:54:51.693Z,2.17
2022-11-25T18:57:19.366Z,1.92
2022-11-25T18:59:56.005Z,1.88
2022-11-25T19:02:34.928Z,1.92
2022-11-25T19:05:02.678Z,2.00
2022-11-25T19:07:29.845Z,2.03
2022-11-25T19:09:57.072Z,2.30
2022-11-25T19:12:24.259Z,1.85
2022-11-25T19:14:52.649Z,2.00
2022-11-25T19:17:21.398Z,1.98
2022-11-25T19:19:48.577Z,2.13
2022-11-25T19:22:17.675Z,1.95
2022-11-25T19:24:45.958Z,2.05
2022-11-25T19:29:42.355Z,2.00
2022-11-25T19:32:15.242Z,2.17
2022-11-25T19:34:44.514Z,1.90
2022-11-25T19:37:15.874Z,1.98
2022-11-25T19:39:43.009Z,2.15
2022-11-25T19:42:11.087Z,2.30
2022-11-25T19:44:38.472Z,2.20
2022-11-25T19:47:15.326Z,2.00
2022-11-25T19:49:43.241Z,2.03
2022-11-25T19:52:15.178Z,2.13
2022-11-25T19:54:42.390Z,2.00
2022-11-25T19:57:15.729Z,2.20
2022-11-25T19:59:42.951Z,2.10
2022-11-25T20:02:17.608Z,1.98
2022-11-25T20:04:45.351Z,2.10
2022-11-25T20:07:13.764Z,2.10
2022-11-25T20:09:41.045Z,2.10
2022-11-25T20:12:22.440Z,2.07
2022-11-25T20:14:49.916Z,2.20
2022-11-25T20:17:25.554Z,1.80
2022-11-25T20:19:53.849Z,2.10
2022-11-25T20:22:24.829Z,1.90
2022-11-25T20:24:52.095Z,2.08
2022-11-25T20:27:19.259Z,1.90
2022-11-25T20:29:46.462Z,1.80
2022-11-25T20:32:30.628Z,2.28
2022-11-25T20:34:58.268Z,2.08
2022-11-25T20:37:26.278Z,2.05
2022-11-25T20:39:54.725Z,2.00
2022-11-25T20:42:22.506Z,2.20
2022-11-25T20:44:53.323Z,2.15
2022-11-25T20:47:26.303Z,2.30
2022-11-25T20:49:54.010Z,2.00
2022-11-25T20:52:24.784Z,2.05
2022-11-25T20:54:51.936Z,2.38
2022-11-25T20:57:19.066Z,2.10
2022-11-25T20:59:46.217Z,2.17
2022-11-25T21:02:13.478Z,2.15
2022-11-25T21:04:40.632Z,2.37
2022-11-25T21:07:12.851Z,2.50
2022-11-25T21:09:40.026Z,2.45
2022-11-25T21:12:07.813Z,2.42
2022-11-25T21:14:35.104Z,2.10
2022-11-25T21:17:02.319Z,2.30
2022-11-25T21:19:29.731Z,2.20
2022-11-25T21:21:57.094Z,2.13
2022-11-25T21:24:41.062Z,2.53
2022-11-25T21:27:14.627Z,2.30
2022-11-25T21:29:42.656Z,2.20
2022-11-25T21:32:28.266Z,2.30
2022-11-25T21:34:56.127Z,2.13
2022-11-25T21:37:34.340Z,2.40
2022-11-25T21:40:01.712Z,2.30
2022-11-25T21:42:33.488Z,2.03
2022-11-25T21:45:00.770Z,2.33
2022-11-25T21:47:30.305Z,2.30
2022-11-25T21:50:04.999Z,2.13
2022-11-25T21:52:32.110Z,2.20
2022-11-25T21:55:00.458Z,2.47
2022-11-25T21:57:28.393Z,2.25
2022-11-25T21:59:55.556Z,2.20
2022-11-25T22:02:23.603Z,2.30
2022-11-25T22:04:51.432Z,2.53
2022-11-25T22:07:18.662Z,2.20
2022-11-25T22:09:45.901Z,2.38
2022-11-25T22:12:38.134Z,2.67
2022-11-25T22:15:11.676Z,2.25
2022-11-25T22:17:38.791Z,2.40
2022-11-25T22:20:14.779Z,2.33
2022-11-25T22:22:42.000Z,2.53
2022-11-25T22:25:10.101Z,2.22
2022-11-25T22:30:04.711Z,2.50
2022-11-25T22:32:31.877Z,2.63
2022-11-25T22:34:59.125Z,2.47
2022-11-25T22:37:26.271Z,2.57
2022-11-25T22:39:53.382Z,2.47
2022-11-25T22:42:31.656Z,2.30
2022-11-25T22:45:01.791Z,2.60
2022-11-25T22:47:28.936Z,2.80
2022-11-25T22:49:56.409Z,2.97
2022-11-25T22:52:27.749Z,2.53
2022-11-25T22:54:55.108Z,2.60
2022-11-25T22:57:22.396Z,2.90
2022-11-25T22:59:49.514Z,2.77
2022-11-25T23:02:30.348Z,3.00
2022-11-25T23:04:57.642Z,2.85
2022-11-25T23:07:25.301Z,2.60
2022-11-25T23:09:52.805Z,2.63
2022-11-25T23:12:20.217Z,3.08
2022-11-25T23:14:47.389Z,2.78
2022-11-25T23:17:22.667Z,2.85
2022-11-25T23:19:50.343Z,3.13
2022-11-25T23:22:17.714Z,3.05
2022-11-25T23:24:48.173Z,3.20
2022-11-25T23:27:16.173Z,2.83
2022-11-25T23:29:43.382Z,3.03
2022-11-25T23:32:18.668Z,2.97
2022-11-25T23:34:46.111Z,3.13
2022-11-25T23:37:14.037Z,3.28
2022-11-25T23:39:41.507Z,3.13
2022-11-25T23:42:18.851Z,2.95
2022-11-25T23:44:46.135Z,3.20
2022-11-25T23:47:16.778Z,2.97
2022-11-25T23:49:45.028Z,3.22
2022-11-25T23:52:18.672Z,3.45
2022-11-25T23:54:47.374Z,3.42
2022-11-25T23:57:14.658Z,3.15
2022-11-25T23:59:42.249Z,3.20
